This is the latest recevied weather packets stored in our database for station/object DB0BQ-11. If no packets are shown the sender has not sent any weather packets the latest 10 day(s).
| Time | Temp. | Humidity | Pressure | Rain* | Wind** | Luminosity | Snow |
|---|---|---|---|---|---|---|---|
| 1777170924 | 4.44° C | 92% | 1023.4 hPa | - | - | - | - |
| 1777169118 | 5° C | 90% | 1023.2 hPa | - | - | - | - |
| 1777167973 | 5.56° C | 88% | 1023.1 hPa | - | - | - | - |
| 1777165525 | 6.11° C | 84% | 1022.8 hPa | - | - | - | - |
| 1777163116 | 7.22° C | 82% | 1022.5 hPa | - | - | - | - |
| 1777160125 | 7.78° C | 78% | 1022.2 hPa | - | - | - | - |
| 1777159523 | 8.33° C | 77% | 1022 hPa | - | - | - | - |
| 1777157136 | 9.44° C | 67% | 1021.5 hPa | - | - | - | - |
| 1777154726 | 10° C | 63% | 1020.9 hPa | - | - | - | - |
| 1777154124 | 10° C | 62% | 1020.8 hPa | - | - | - | - |
| 1777143927 | 14.44° C | 42% | 1019.3 hPa | - | - | - | - |
| 1777138527 | 18.33° C | 26% | 1018.8 hPa | - | - | - | - |
| 1777134332 | 18.89° C | 38% | 1018.7 hPa | - | - | - | - |
| 1777132526 | 17.78° C | 38% | 1018.8 hPa | - | - | - | - |
| 1777128933 | 19.44° C | 34% | 1018.7 hPa | - | - | - | - |
| 1777121124 | 18.33° C | 34% | 1019.6 hPa | - | - | - | - |
| 1777116327 | 15° C | 52% | 1020 hPa | - | - | - | - |
| 1777114521 | 14.44° C | 55% | 1020.3 hPa | - | - | - | - |
| 1777110948 | 11.67° C | 64% | 1020.6 hPa | - | - | - | - |
| 1777110326 | 10.56° C | 67% | 1020.5 hPa | - | - | - | - |
| 1777109723 | 9.44° C | 70% | 1020.7 hPa | - | - | - | - |
| 1777100751 | 5° C | 90% | 1020.6 hPa | - | - | - | - |
| 1777098925 | 4.44° C | 93% | 1020.3 hPa | - | - | - | - |
| 1777095352 | 4.44° C | 97% | 1020.1 hPa | - | - | - | - |
| 1777094729 | 4.44° C | 97% | 1020 hPa | - | - | - | - |
* Rain since midnight (hover to see other rain measurements)
** Current wind speed in m/s (hover to see current wind gust speed)